Time;durP1;ratioP1;P1;durP2;ratioP2;P2;SDS_P1;SDS_P2;PMS_P1;PMS_P2;Temp;Humidity;BMP_temperature;BMP_pressure;BME280_temperature;BME280_humidity;BME280_pressure;Samples;Min_cycle;Max_cycle;Signal;HPM_P1;HPM_P2
2021/09/20 05:34:08;;;;;;;1.00;0.72;;;;;;;6.20;100.00;97624.30;1861623;77;20896;-60
2021/09/20 05:36:34;;;;;;;1.10;0.90;;;;;;;6.29;100.00;97620.57;1861594;77;21756;-61
2021/09/20 05:39:03;;;;;;;1.87;0.50;;;;;;;6.37;100.00;97619.47;1861076;77;21061;-59
2021/09/20 05:41:29;;;;;;;0.50;0.50;;;;;;;6.43;100.00;97622.91;1860417;77;20966;-60
2021/09/20 05:43:57;;;;;;;0.78;0.40;;;;;;;6.48;100.00;97625.52;1833196;77;20930;-60
2021/09/20 05:46:24;;;;;;;1.47;0.33;;;;;;;6.50;100.00;97625.52;1777624;80;21404;-60
2021/09/20 05:48:51;;;;;;;2.60;0.40;;;;;;;6.57;100.00;97626.02;1804690;78;21204;-60
2021/09/20 05:51:29;;;;;;;1.02;0.40;;;;;;;6.71;100.00;97623.59;1821244;78;21003;-60
2021/09/20 05:54:02;;;;;;;0.40;0.40;;;;;;;6.80;100.00;97630.73;1780889;80;20935;-60
2021/09/20 05:56:35;;;;;;;0.60;0.30;;;;;;;6.92;100.00;97634.39;1800687;78;20962;-60
2021/09/20 05:59:09;;;;;;;0.30;0.30;;;;;;;7.02;100.00;97634.87;1785048;79;20979;-60
2021/09/20 06:01:35;;;;;;;0.35;0.35;;;;;;;7.07;100.00;97635.61;1801983;78;21076;-60
2021/09/20 06:04:03;;;;;;;0.40;0.40;;;;;;;7.11;100.00;97629.21;1784938;80;20923;-60
2021/09/20 06:06:29;;;;;;;0.75;0.45;;;;;;;7.14;100.00;97637.95;1757893;81;21004;-61
2021/09/20 06:08:56;;;;;;;0.85;0.30;;;;;;;7.16;100.00;97645.16;1768902;80;20946;-60
2021/09/20 06:11:24;;;;;;;0.53;0.30;;;;;;;7.21;100.00;97646.44;1788171;80;21355;-59
2021/09/20 06:13:56;;;;;;;0.30;0.30;;;;;;;7.23;100.00;97638.43;1810033;78;20911;-59
2021/09/20 06:16:23;;;;;;;0.55;0.30;;;;;;;7.24;100.00;97652.55;1813516;79;21391;-59
2021/09/20 06:18:50;;;;;;;0.75;0.40;;;;;;;7.24;100.00;97641.37;1810789;79;20948;-60
2021/09/20 06:21:17;;;;;;;0.42;0.42;;;;;;;7.29;100.00;97640.00;1811054;79;20968;-60
2021/09/20 06:23:45;;;;;;;0.65;0.30;;;;;;;7.28;99.82;97652.25;1805935;78;20991;-61
2021/09/20 06:26:12;;;;;;;0.78;0.50;;;;;;;7.20;99.23;97638.20;1807507;79;21157;-60
2021/09/20 06:28:39;;;;;;;0.50;0.50;;;;;;;7.17;99.46;97641.41;1806767;79;20924;-60
2021/09/20 06:31:06;;;;;;;2.17;1.40;;;;;;;7.17;99.47;97638.75;1777037;80;20911;-60
2021/09/20 06:33:33;;;;;;;1.80;1.30;;;;;;;7.19;99.60;97637.40;1778944;78;20897;-60
2021/09/20 06:36:01;;;;;;;0.50;0.50;;;;;;;7.25;99.50;97648.83;1800251;79;20936;-60
2021/09/20 06:38:28;;;;;;;0.40;0.40;;;;;;;7.25;99.02;97636.84;1804144;79;21117;-61
2021/09/20 06:40:57;;;;;;;0.53;0.40;;;;;;;7.26;98.70;97642.41;1804452;79;20877;-60
2021/09/20 06:43:24;;;;;;;0.42;0.40;;;;;;;7.26;98.54;97638.41;1803836;79;20989;-61
2021/09/20 06:45:52;;;;;;;0.90;0.40;;;;;;;7.26;98.47;97641.08;1803932;79;21008;-60
2021/09/20 06:48:19;;;;;;;0.93;0.57;;;;;;;7.27;98.20;97639.49;1803968;79;21007;-60
2021/09/20 06:50:45;;;;;;;1.17;0.60;;;;;;;7.27;98.27;97640.02;1803887;79;21118;-60
2021/09/20 06:53:12;;;;;;;0.50;0.50;;;;;;;7.31;98.11;97645.05;1804083;79;21384;-62
2021/09/20 06:55:39;;;;;;;1.40;0.53;;;;;;;7.37;98.22;97643.95;1804026;79;20917;-62
2021/09/20 06:58:05;;;;;;;1.35;0.50;;;;;;;7.41;98.00;97642.31;1798982;79;21546;-61
2021/09/20 07:00:37;;;;;;;0.72;0.45;;;;;;;7.40;97.52;97646.04;1788588;79;20959;-62
2021/09/20 07:03:07;;;;;;;0.42;0.42;;;;;;;7.39;97.30;97648.46;1774565;79;20987;-61
2021/09/20 07:05:34;;;;;;;0.80;0.68;;;;;;;7.35;97.06;97646.07;1780198;79;20979;-61
2021/09/20 07:08:03;;;;;;;0.70;0.53;;;;;;;7.32;96.67;97665.30;1789001;79;20951;-60
2021/09/20 07:10:35;;;;;;;0.78;0.40;;;;;;;7.30;97.04;97660.78;1770403;79;20975;-61
2021/09/20 07:13:09;;;;;;;0.30;0.30;;;;;;;7.30;96.36;97663.45;1776297;79;21435;-61
2021/09/20 07:15:37;;;;;;;0.30;0.30;;;;;;;7.27;95.94;97664.00;1780184;79;21125;-60
2021/09/20 07:18:18;;;;;;;0.72;0.40;;;;;;;7.24;96.09;97667.20;1788165;79;20858;-60
2021/09/20 07:20:49;;;;;;;0.60;0.47;;;;;;;7.28;96.35;97669.56;1774588;80;20927;-60
2021/09/20 07:23:17;;;;;;;0.50;0.37;;;;;;;7.35;96.43;97672.72;1766132;80;21602;-60
2021/09/20 07:25:46;;;;;;;0.53;0.40;;;;;;;7.39;96.26;97668.45;1774642;80;20829;-59
2021/09/20 07:28:13;;;;;;;0.60;0.60;;;;;;;7.43;95.91;97678.80;1791088;79;21422;-61
2021/09/20 07:30:42;;;;;;;0.75;0.53;;;;;;;7.40;95.41;97678.02;1794753;79;20920;-59
2021/09/20 07:33:11;;;;;;;0.55;0.55;;;;;;;7.33;95.24;97674.86;1771583;80;21478;-59
2021/09/20 07:35:44;;;;;;;1.30;1.10;;;;;;;7.27;95.26;97673.32;1781780;79;21016;-61
2021/09/20 07:38:11;;;;;;;2.22;0.90;;;;;;;7.20;95.54;97672.30;1776336;79;21500;-62
2021/09/20 07:40:39;;;;;;;1.30;0.90;;;;;;;7.20;95.84;97675.49;1787658;79;21868;-61
2021/09/20 07:43:09;;;;;;;1.00;0.70;;;;;;;7.20;95.83;97674.16;1781920;79;21404;-61
2021/09/20 07:45:40;;;;;;;2.40;1.12;;;;;;;7.21;95.72;97675.73;1777689;79;20914;-60
2021/09/20 07:48:14;;;;;;;4.55;2.75;;;;;;;7.22;95.81;97672.81;1780597;79;21028;-61
2021/09/20 07:50:52;;;;;;;2.35;1.50;;;;;;;7.22;95.74;97668.82;1794507;79;20960;-62
2021/09/20 07:53:21;;;;;;;2.20;0.88;;;;;;;7.23;95.60;97672.29;1790145;79;21028;-62
2021/09/20 07:55:50;;;;;;;3.10;0.70;;;;;;;7.20;95.61;97665.64;1799896;79;20971;-61
2021/09/20 07:58:23;;;;;;;1.12;0.80;;;;;;;7.21;95.80;97665.89;1791416;79;20853;-64
2021/09/20 08:00:58;;;;;;;0.90;0.70;;;;;;;7.27;96.04;97673.32;1791926;79;21398;-64
2021/09/20 08:03:29;;;;;;;1.30;0.70;;;;;;;7.35;96.23;97676.71;1800220;79;21502;-62
2021/09/20 08:06:07;;;;;;;1.10;0.82;;;;;;;7.46;96.30;97682.25;1760640;81;21257;-63
2021/09/20 08:08:40;;;;;;;1.17;0.60;;;;;;;7.53;96.26;97686.73;1775634;80;20984;-61
2021/09/20 08:11:08;;;;;;;1.07;0.88;;;;;;;7.61;96.42;97692.78;1729429;81;21502;-62
2021/09/20 08:13:35;;;;;;;0.70;0.70;;;;;;;7.66;95.85;97690.62;1771866;80;20904;-59
2021/09/20 08:16:04;;;;;;;3.80;1.07;;;;;;;7.63;95.44;97696.53;1770575;79;20943;-60
2021/09/20 08:18:32;;;;;;;1.32;0.80;;;;;;;7.53;95.39;97700.06;1773742;79;21289;-62
2021/09/20 08:20:59;;;;;;;1.95;1.12;;;;;;;7.53;95.52;97700.06;1762409;80;21365;-61
2021/09/20 08:23:27;;;;;;;1.42;0.80;;;;;;;7.54;95.40;97701.63;1781002;79;21668;-62
2021/09/20 08:25:54;;;;;;;1.12;0.80;;;;;;;7.49;95.16;97704.33;1840338;77;20963;-63
2021/09/20 08:28:22;;;;;;;2.58;1.00;;;;;;;7.48;94.83;97702.75;1843858;77;21106;-60
2021/09/20 08:30:49;;;;;;;1.45;0.90;;;;;;;7.45;94.67;97701.97;1838723;77;21687;-61
2021/09/20 08:33:17;;;;;;;1.10;1.00;;;;;;;7.44;94.94;97697.73;1844839;77;20954;-64
2021/09/20 08:35:46;;;;;;;2.58;0.85;;;;;;;7.47;95.22;97699.81;1841268;77;20923;-60
2021/09/20 08:38:12;;;;;;;1.02;1.00;;;;;;;7.52;95.22;97705.12;1843028;77;20972;-60
2021/09/20 08:40:39;;;;;;;1.72;0.90;;;;;;;7.55;95.08;97701.91;1838047;77;21528;-60
2021/09/20 08:43:06;;;;;;;1.72;0.90;;;;;;;7.60;95.06;97703.20;1841812;77;21108;-61
2021/09/20 08:45:37;;;;;;;1.45;0.90;;;;;;;7.67;94.56;97705.55;1808109;79;21232;-60
2021/09/20 08:48:05;;;;;;;0.93;0.90;;;;;;;7.70;94.17;97707.67;1839064;77;20840;-60
2021/09/20 08:50:36;;;;;;;1.70;1.15;;;;;;;7.73;93.94;97713.23;1835892;77;20930;-61
2021/09/20 08:53:09;;;;;;;2.00;0.90;;;;;;;7.76;93.95;97715.34;1843278;77;20969;-60
2021/09/20 08:55:37;;;;;;;2.00;1.30;;;;;;;7.76;93.97;97712.67;1835902;77;21075;-61
2021/09/20 08:58:04;;;;;;;1.17;1.00;;;;;;;7.80;93.96;97720.38;1810879;79;20907;-62
2021/09/20 09:00:31;;;;;;;1.10;0.70;;;;;;;7.76;93.70;97718.02;1816216;79;20993;-63
2021/09/20 09:03:00;;;;;;;1.15;0.80;;;;;;;7.75;93.70;97719.07;1748734;80;20936;-62
2021/09/20 09:05:28;;;;;;;0.60;0.60;;;;;;;7.72;93.53;97715.66;1808114;79;20962;-61
2021/09/20 09:07:58;;;;;;;0.93;0.68;;;;;;;7.71;93.61;97716.71;1797894;79;21126;-64
2021/09/20 09:10:34;;;;;;;1.00;0.90;;;;;;;7.70;93.68;97713.77;1848735;77;20927;-62
2021/09/20 09:13:05;;;;;;;2.47;1.20;;;;;;;7.70;93.77;97715.67;1852842;77;21033;-61
2021/09/20 09:15:32;;;;;;;2.40;1.17;;;;;;;7.74;93.87;97715.36;1771897;80;20916;-63
2021/09/20 09:18:04;;;;;;;1.35;1.10;;;;;;;7.73;93.96;97709.76;1844756;77;20979;-62
2021/09/20 09:20:36;;;;;;;1.80;1.02;;;;;;;7.75;93.91;97720.41;1816503;77;20912;-61
2021/09/20 09:23:09;;;;;;;1.30;1.00;;;;;;;7.73;93.47;97713.76;1776293;80;21652;-61
2021/09/20 09:25:41;;;;;;;0.72;0.72;;;;;;;7.76;93.64;97715.88;1776559;80;20916;-62
2021/09/20 09:28:22;;;;;;;1.65;0.98;;;;;;;7.85;94.01;97719.00;1775690;80;21492;-61
2021/09/20 09:30:56;;;;;;;1.30;0.90;;;;;;;7.95;93.65;97717.59;1835562;77;20833;-61
2021/09/20 09:33:37;;;;;;;1.60;1.20;;;;;;;8.05;93.55;97717.52;1835462;78;21807;-61
2021/09/20 09:36:05;;;;;;;1.20;1.10;;;;;;;8.09;93.27;97721.20;1835359;78;20903;-62
2021/09/20 09:38:34;;;;;;;1.95;1.20;;;;;;;8.09;92.44;97716.41;1841716;77;20937;-62
2021/09/20 09:41:03;;;;;;;1.30;1.17;;;;;;;8.01;92.17;97723.66;1799986;77;20888;-62
2021/09/20 09:43:42;;;;;;;1.90;1.40;;;;;;;7.91;91.95;97728.57;1820425;77;21042;-64
2021/09/20 09:46:22;;;;;;;1.42;1.20;;;;;;;7.81;91.63;97729.97;1814226;79;21477;-62
2021/09/20 09:48:53;;;;;;;1.15;1.05;;;;;;;7.87;91.98;97732.84;1814143;78;20943;-62
2021/09/20 09:51:20;;;;;;;1.98;1.42;;;;;;;7.96;91.74;97734.40;1814859;78;21140;-63
2021/09/20 09:53:54;;;;;;;1.20;1.10;;;;;;;8.04;91.75;97729.25;1825394;77;21086;-62
2021/09/20 09:56:27;;;;;;;1.10;1.00;;;;;;;8.09;91.73;97731.88;1837719;78;21408;-61
2021/09/20 09:59:07;;;;;;;1.10;1.00;;;;;;;8.05;91.27;97724.19;1765978;81;21725;-63
2021/09/20 10:01:38;;;;;;;1.22;1.12;;;;;;;7.99;91.00;97739.95;1832298;77;20934;-63
2021/09/20 10:04:16;;;;;;;1.35;1.20;;;;;;;8.01;91.25;97743.67;1815880;79;20903;-62
2021/09/20 10:06:47;;;;;;;1.55;1.17;;;;;;;7.99;91.08;97739.16;1815425;79;21011;-64
2021/09/20 10:09:24;;;;;;;1.50;1.40;;;;;;;7.99;91.11;97740.48;1815545;79;20903;-62
2021/09/20 10:11:58;;;;;;;2.33;1.15;;;;;;;8.01;91.08;97740.47;1822433;78;21704;-63
2021/09/20 10:14:29;;;;;;;2.15;1.40;;;;;;;7.99;90.58;97743.16;1825040;77;20927;-62
2021/09/20 10:16:59;;;;;;;1.77;1.55;;;;;;;7.97;90.62;97739.44;1836196;77;21506;-62
2021/09/20 10:19:30;;;;;;;2.90;1.65;;;;;;;8.06;90.55;97743.09;1834394;77;20955;-62
2021/09/20 10:21:57;;;;;;;1.57;1.42;;;;;;;8.15;90.76;97738.75;1824321;77;20979;-62
2021/09/20 10:24:26;;;;;;;2.10;1.60;;;;;;;8.25;89.95;97741.33;1828384;77;20876;-62
2021/09/20 10:26:52;;;;;;;1.82;1.02;;;;;;;8.32;89.75;97741.56;1844284;77;20932;-63
2021/09/20 10:29:20;;;;;;;1.30;1.00;;;;;;;8.33;88.85;97746.64;1783623;79;21502;-61
2021/09/20 10:31:49;;;;;;;2.67;1.20;;;;;;;8.35;88.56;97744.48;1783856;79;20964;-62
2021/09/20 10:34:24;;;;;;;2.62;1.20;;;;;;;8.39;88.86;97756.17;1787921;79;20904;-63
2021/09/20 10:37:03;;;;;;;1.00;0.90;;;;;;;8.41;88.16;97757.25;1842441;77;20937;-63
2021/09/20 10:40:00;;;;;;;1.05;0.95;;;;;;;8.32;87.21;97757.57;1803152;77;20967;-62
2021/09/20 10:42:47;;;;;;;1.12;0.90;;;;;;;8.18;87.62;97763.54;1787493;80;21493;-63
2021/09/20 10:45:42;;;;;;;1.00;0.90;;;;;;;8.06;87.29;97767.11;1756781;80;20991;-64
2021/09/20 10:48:27;;;;;;;1.15;0.80;;;;;;;7.98;87.65;97763.72;1788625;79;20998;-61
2021/09/20 10:51:16;;;;;;;1.52;1.20;;;;;;;7.91;87.93;97762.44;1788486;80;21186;-61
2021/09/20 10:53:44;;;;;;;1.25;1.00;;;;;;;7.93;88.48;97769.62;1788450;80;20919;-63
2021/09/20 10:56:15;;;;;;;0.70;0.70;;;;;;;7.96;88.11;97769.84;1788660;80;20956;-62
2021/09/20 10:58:56;;;;;;;1.00;0.85;;;;;;;7.98;88.10;97761.58;1788073;80;20979;-63
2021/09/20 11:01:26;;;;;;;2.55;1.00;;;;;;;8.00;88.27;97765.56;1788447;79;20888;-62
2021/09/20 11:04:21;;;;;;;0.88;0.88;;;;;;;8.03;88.39;97763.66;1788509;80;21145;-64
2021/09/20 11:07:16;;;;;;;1.50;1.00;;;;;;;8.08;88.45;97770.28;1805465;77;21071;-61
2021/09/20 11:09:50;;;;;;;1.87;1.00;;;;;;;8.02;88.52;97772.75;1840654;77;20927;-61
2021/09/20 11:12:20;;;;;;;1.00;0.90;;;;;;;8.01;88.99;97770.34;1844152;77;21552;-61
2021/09/20 11:15:00;;;;;;;1.22;1.10;;;;;;;7.99;88.76;97770.63;1844578;77;21154;-64
2021/09/20 11:17:49;;;;;;;1.07;0.98;;;;;;;7.99;88.55;97771.16;1836630;77;20923;-61
2021/09/20 11:20:21;;;;;;;1.12;0.88;;;;;;;7.96;88.24;97771.17;1768783;80;20903;-61
2021/09/20 11:22:48;;;;;;;0.90;0.80;;;;;;;7.97;88.00;97771.45;1760023;80;20888;-61
2021/09/20 11:25:16;;;;;;;1.05;0.82;;;;;;;7.98;87.71;97778.39;1743599;80;21027;-60
2021/09/20 11:27:45;;;;;;;1.85;1.02;;;;;;;7.97;87.77;97771.45;1766989;80;20991;-61
2021/09/20 11:30:21;;;;;;;1.57;1.10;;;;;;;7.96;87.92;97780.51;1746207;81;21021;-64
2021/09/20 11:33:01;;;;;;;1.25;0.90;;;;;;;7.97;88.27;97779.45;1760720;80;20853;-61
2021/09/20 11:35:30;;;;;;;0.82;0.82;;;;;;;7.92;88.26;97782.15;1769336;80;20837;-63
2021/09/20 11:38:02;;;;;;;1.00;0.90;;;;;;;7.90;88.51;97776.30;1747135;81;21456;-61
2021/09/20 11:40:32;;;;;;;0.90;0.82;;;;;;;7.88;88.70;97782.98;1705808;83;21021;-62
2021/09/20 11:43:04;;;;;;;2.12;1.32;;;;;;;7.83;88.34;97785.15;1683085;85;22304;-62
2021/09/20 11:45:33;;;;;;;1.40;1.10;;;;;;;7.76;88.55;97787.86;1706128;84;21525;-63
2021/09/20 11:48:07;;;;;;;1.40;1.10;;;;;;;7.73;88.88;97786.54;1706353;84;20974;-60
2021/09/20 11:50:37;;;;;;;1.92;1.47;;;;;;;7.76;89.13;97783.33;1706026;82;21375;-61
2021/09/20 11:53:08;;;;;;;1.25;1.10;;;;;;;7.84;89.57;97793.42;1706252;84;20935;-62
2021/09/20 11:55:38;;;;;;;1.42;1.12;;;;;;;7.81;89.08;97785.97;1704738;84;21061;-66
2021/09/20 11:58:08;;;;;;;1.12;1.02;;;;;;;7.73;88.98;97789.20;1704989;84;21117;-62
2021/09/20 12:00:37;;;;;;;2.25;1.32;;;;;;;7.67;89.16;97797.52;1704821;84;20989;-62
2021/09/20 12:03:07;;;;;;;1.72;1.30;;;;;;;7.64;89.12;97791.40;1704845;84;21046;-62
2021/09/20 12:05:35;;;;;;;1.55;1.20;;;;;;;7.64;89.42;97794.06;1705632;84;21459;-62
2021/09/20 12:08:05;;;;;;;1.40;1.22;;;;;;;7.66;89.46;97794.05;1705156;84;21549;-61
2021/09/20 12:10:44;;;;;;;1.47;1.10;;;;;;;7.65;89.40;97795.14;1705886;84;20899;-61
2021/09/20 12:13:26;;;;;;;1.62;1.17;;;;;;;7.61;89.56;97799.41;1705828;84;20978;-61
2021/09/20 12:15:59;;;;;;;1.17;1.07;;;;;;;7.63;90.09;97794.59;1705611;84;21085;-61
2021/09/20 12:18:28;;;;;;;1.45;1.10;;;;;;;7.61;89.74;97798.08;1706669;83;21528;-62
2021/09/20 12:21:02;;;;;;;3.33;1.30;;;;;;;7.51;89.79;97800.25;1713510;83;20871;-62
2021/09/20 12:23:41;;;;;;;1.80;1.20;;;;;;;7.40;89.96;97797.39;1713448;83;20914;-60
2021/09/20 12:26:12;;;;;;;3.20;1.37;;;;;;;7.35;90.03;97792.61;1713610;83;20831;-62
2021/09/20 12:28:42;;;;;;;1.37;1.17;;;;;;;7.34;90.54;97797.17;1712658;82;20898;-62
2021/09/20 12:31:17;;;;;;;2.20;1.30;;;;;;;7.39;90.64;97797.67;1713740;83;20931;-63
2021/09/20 12:34:00;;;;;;;;;;;;;;;7.41;90.80;97796.86;1716026;83;21119;-62
2021/09/20 12:36:38;;;;;;;1.65;1.30;;;;;;;7.50;91.01;97799.21;1713532;83;20081;-62
2021/09/20 12:39:24;;;;;;;2.52;1.70;;;;;;;7.58;91.08;97798.65;1713434;83;20907;-62
2021/09/20 12:42:08;;;;;;;1.22;1.12;;;;;;;7.66;91.17;97804.71;1713733;83;21083;-61
2021/09/20 12:44:44;;;;;;;2.22;1.40;;;;;;;7.72;90.98;97800.96;1713699;83;21270;-62
2021/09/20 12:47:17;;;;;;;2.45;1.50;;;;;;;7.74;90.48;97803.34;1713513;83;21465;-61
2021/09/20 12:50:06;;;;;;;2.98;1.67;;;;;;;7.72;90.31;97802.30;1713546;83;20927;-62
2021/09/20 12:52:45;;;;;;;2.35;1.45;;;;;;;7.76;90.36;97803.33;1713399;83;20898;-61
2021/09/20 12:55:17;;;;;;;2.40;1.65;;;;;;;7.74;89.96;97804.14;1713416;83;20958;-62
2021/09/20 12:57:54;;;;;;;3.02;1.42;;;;;;;7.72;89.74;97803.63;1713481;83;20886;-62
2021/09/20 13:00:36;;;;;;;2.10;1.30;;;;;;;7.70;89.83;97802.31;1713383;83;20890;-64
2021/09/20 13:03:14;;;;;;;1.70;1.42;;;;;;;7.64;89.52;97805.53;1713041;83;20966;-62
2021/09/20 13:05:49;;;;;;;1.77;1.22;;;;;;;7.57;89.53;97807.17;1713659;83;20937;-61
2021/09/20 13:08:16;;;;;;;1.62;1.20;;;;;;;7.52;89.72;97813.86;1713236;83;21231;-60
2021/09/20 13:10:46;;;;;;;2.30;1.20;;;;;;;7.50;89.85;97804.55;1713650;83;21426;-61
2021/09/20 13:13:31;;;;;;;1.90;1.30;;;;;;;7.45;89.93;97805.36;1709045;83;21719;-60
2021/09/20 13:16:00;;;;;;;2.90;1.20;;;;;;;7.42;89.81;97803.77;1713227;82;21384;-60
2021/09/20 13:18:28;;;;;;;2.60;1.37;;;;;;;7.44;90.28;97809.65;1725466;82;20907;-61
2021/09/20 13:20:57;;;;;;;1.90;1.32;;;;;;;7.45;90.04;97809.36;1680554;83;21028;-61
2021/09/20 13:23:34;;;;;;;2.50;1.42;;;;;;;7.43;89.99;97806.70;1746934;82;21475;-60
2021/09/20 13:26:03;;;;;;;2.10;1.60;;;;;;;7.46;90.42;97808.84;1746973;80;21129;-60
2021/09/20 13:28:38;;;;;;;1.57;1.10;;;;;;;7.46;90.26;97816.30;1761952;80;21503;-61
2021/09/20 13:31:15;;;;;;;2.12;1.27;;;;;;;7.48;90.36;97810.69;1747418;80;21015;-62
2021/09/20 13:33:47;;;;;;;2.00;1.37;;;;;;;7.54;90.63;97813.57;1746769;82;20944;-60
2021/09/20 13:36:16;;;;;;;1.80;1.40;;;;;;;7.62;90.67;97815.67;1747014;82;20979;-61
2021/09/20 13:38:47;;;;;;;4.60;1.55;;;;;;;7.71;90.59;97814.02;1746751;82;21886;-62
2021/09/20 13:41:16;;;;;;;1.80;1.20;;;;;;;7.78;90.29;97814.51;1745324;82;21144;-61
2021/09/20 13:43:45;;;;;;;2.95;1.50;;;;;;;7.81;90.11;97810.50;1745701;82;21026;-60
2021/09/20 13:46:20;;;;;;;3.77;1.45;;;;;;;7.86;90.19;97811.80;1747083;82;20952;-60
2021/09/20 13:48:51;;;;;;;;;;;;;;;7.86;90.00;97809.13;1749416;82;21523;-61
2021/09/20 13:51:18;;;;;;;2.47;1.37;;;;;;;7.86;90.12;97813.94;1770263;80;21685;-60
2021/09/20 13:53:53;;;;;;;1.95;1.35;;;;;;;7.82;89.75;97814.20;1771064;80;20944;-63
2021/09/20 13:56:29;;;;;;;1.90;1.50;;;;;;;7.75;89.89;97817.72;1777013;80;20877;-61
2021/09/20 13:58:57;;;;;;;1.80;1.30;;;;;;;7.71;90.04;97819.34;1777818;80;21335;-60
2021/09/20 14:01:25;;;;;;;2.92;1.70;;;;;;;7.66;90.15;97822.04;1754802;80;20936;-60
2021/09/20 14:03:54;;;;;;;1.87;1.70;;;;;;;7.61;90.35;97827.39;1743616;80;21120;-61
2021/09/20 14:06:22;;;;;;;1.70;1.52;;;;;;;7.55;90.60;97829.84;1765472;80;20954;-61
2021/09/20 14:08:51;;;;;;;1.40;1.20;;;;;;;7.51;90.64;97827.47;1777383;80;21155;-61
2021/09/20 14:11:19;;;;;;;2.08;1.25;;;;;;;7.41;90.72;97832.84;1774939;80;21032;-61
2021/09/20 14:13:46;;;;;;;1.87;1.52;;;;;;;7.30;90.46;97833.40;1773793;80;20928;-62
2021/09/20 14:16:16;;;;;;;3.20;1.92;;;;;;;7.24;90.86;97840.36;1775681;80;20916;-61
2021/09/20 14:18:43;;;;;;;5.65;1.85;;;;;;;7.20;91.25;97842.78;1777106;80;21027;-61
2021/09/20 14:21:12;;;;;;;2.15;1.60;;;;;;;7.20;91.52;97843.31;1775907;80;20940;-62
2021/09/20 14:23:39;;;;;;;2.17;1.60;;;;;;;7.19;91.63;97847.03;1774736;81;20920;-62
2021/09/20 14:26:06;;;;;;;2.20;1.77;;;;;;;7.19;91.90;97847.03;1773558;81;21436;-61
2021/09/20 14:28:33;;;;;;;1.98;1.60;;;;;;;7.17;91.89;97849.97;1774495;81;21121;-61
2021/09/20 14:31:00;;;;;;;2.20;1.55;;;;;;;7.16;92.02;97851.59;1774127;81;20912;-61
2021/09/20 14:33:28;;;;;;;1.98;1.52;;;;;;;7.20;92.20;97857.96;1774182;81;21860;-62
2021/09/20 14:35:56;;;;;;;2.85;1.92;;;;;;;7.26;91.92;97851.53;1774640;81;20912;-61
2021/09/20 14:38:23;;;;;;;2.27;2.00;;;;;;;7.31;92.07;97856.32;1774678;81;20936;-61
2021/09/20 14:40:50;;;;;;;3.37;2.90;;;;;;;7.34;92.13;97852.31;1774106;81;21170;-61
2021/09/20 14:43:18;;;;;;;4.90;2.37;;;;;;;7.39;92.25;97849.64;1774747;81;21403;-61
2021/09/20 14:45:45;;;;;;;2.83;1.95;;;;;;;7.43;92.27;97856.81;1774759;81;20897;-61
2021/09/20 14:48:12;;;;;;;3.77;1.80;;;;;;;7.45;91.77;97854.67;1774725;81;20978;-61
2021/09/20 14:50:40;;;;;;;5.60;1.70;;;;;;;7.42;91.64;97857.06;1774689;81;20848;-62
2021/09/20 14:53:06;;;;;;;4.17;1.72;;;;;;;7.41;91.76;97857.63;1774723;81;21701;-62
2021/09/20 14:55:35;;;;;;;1.67;1.45;;;;;;;7.43;91.81;97857.34;1774969;81;20992;-62
2021/09/20 14:58:02;;;;;;;1.82;1.52;;;;;;;7.44;91.46;97860.28;1774730;81;20885;-62
2021/09/20 15:00:29;;;;;;;3.98;1.60;;;;;;;7.44;91.37;97858.95;1774723;81;20924;-62
2021/09/20 15:02:55;;;;;;;1.70;1.30;;;;;;;7.42;91.17;97862.39;1774845;80;21396;-62
2021/09/20 15:05:23;;;;;;;1.82;1.32;;;;;;;7.40;91.08;97867.20;1774728;81;21159;-61
2021/09/20 15:07:50;;;;;;;1.72;1.17;;;;;;;7.37;91.03;97866.44;1774845;80;20881;-62
2021/09/20 15:10:18;;;;;;;2.20;1.22;;;;;;;7.33;91.23;97868.83;1774805;81;20845;-62
2021/09/20 15:12:44;;;;;;;2.62;1.62;;;;;;;7.32;91.40;97863.78;1774634;81;21071;-61
2021/09/20 15:15:13;;;;;;;1.90;1.55;;;;;;;7.35;91.63;97865.36;1774558;81;20939;-61
2021/09/20 15:17:41;;;;;;;2.37;1.50;;;;;;;7.37;91.50;97876.53;1774621;81;21019;-61
2021/09/20 15:20:10;;;;;;;2.08;1.45;;;;;;;7.32;91.48;97873.11;1776013;80;20920;-60
2021/09/20 15:22:37;;;;;;;2.42;1.60;;;;;;;7.35;91.79;97876.55;1777605;80;20860;-62
2021/09/20 15:25:09;;;;;;;3.40;1.42;;;;;;;7.35;91.70;97883.20;1777613;80;20881;-61
2021/09/20 15:27:38;;;;;;;1.57;1.22;;;;;;;7.34;91.58;97877.62;1777669;80;21293;-62
2021/09/20 15:30:07;;;;;;;2.42;1.27;;;;;;;7.30;91.55;97885.91;1777921;80;21123;-62
2021/09/20 15:32:34;;;;;;;1.45;1.30;;;;;;;7.24;91.43;97879.79;1777518;80;20892;-61
2021/09/20 15:35:02;;;;;;;1.75;1.25;;;;;;;7.16;91.37;97884.88;1777728;80;20967;-61
2021/09/20 15:37:31;;;;;;;2.12;1.07;;;;;;;7.09;91.44;97885.70;1777719;80;21020;-62
2021/09/20 15:39:59;;;;;;;3.05;1.15;;;;;;;7.08;91.51;97893.41;1777790;80;20897;-61
2021/09/20 15:42:26;;;;;;;1.62;1.07;;;;;;;7.06;91.26;97887.56;1777678;80;21130;-62
2021/09/20 15:44:53;;;;;;;1.20;1.05;;;;;;;7.03;91.08;97898.75;1777655;80;20944;-61
2021/09/20 15:47:20;;;;;;;1.77;1.10;;;;;;;6.99;91.08;97899.03;1777720;80;20873;-61
2021/09/20 15:49:47;;;;;;;1.75;1.12;;;;;;;7.00;91.28;97901.94;1777713;80;20885;-61
2021/09/20 15:52:15;;;;;;;2.12;1.47;;;;;;;7.04;91.54;97908.34;1777711;80;20987;-61
2021/09/20 15:54:41;;;;;;;2.27;1.50;;;;;;;7.06;91.51;97907.54;1777698;80;21674;-60
2021/09/20 15:57:08;;;;;;;1.70;1.50;;;;;;;7.05;91.42;97913.92;1777650;80;20912;-62
2021/09/20 15:59:35;;;;;;;1.47;1.25;;;;;;;7.03;91.61;97919.52;1777940;80;20989;-63
2021/09/20 16:02:03;;;;;;;3.02;1.47;;;;;;;7.05;91.73;97919.25;1777640;80;21012;-61
2021/09/20 16:04:30;;;;;;;1.95;1.67;;;;;;;7.03;91.83;97917.39;1777701;80;20898;-61
2021/09/20 16:06:59;;;;;;;3.25;1.77;;;;;;;7.01;91.98;97917.67;1777643;80;20861;-62
2021/09/20 16:09:26;;;;;;;2.42;1.60;;;;;;;7.02;92.05;97921.14;1777505;80;20833;-61
2021/09/20 16:11:58;;;;;;;1.92;1.70;;;;;;;6.99;92.16;97925.13;1777872;80;21479;-62
2021/09/20 16:14:25;;;;;;;1.40;1.30;;;;;;;6.96;92.17;97924.85;1777761;80;20940;-62
2021/09/20 16:16:54;;;;;;;2.10;1.70;;;;;;;6.97;92.17;97923.80;1777992;80;20960;-62
2021/09/20 16:19:22;;;;;;;3.33;2.67;;;;;;;6.96;92.28;97930.18;1775305;80;21129;-62
